createdAt,value
2022-09-12T00:01:43.493Z,1.40
2022-09-12T00:06:45.920Z,2.80
2022-09-12T00:11:49.991Z,2.95
2022-09-12T00:16:52.614Z,4.28
2022-09-12T00:21:55.298Z,5.60
2022-09-12T00:26:59.302Z,5.88
2022-09-12T00:32:02.193Z,7.00
2022-09-12T00:37:04.901Z,6.97
2022-09-12T00:42:10.548Z,8.00
2022-09-12T00:47:21.195Z,6.63
2022-09-12T00:52:29.722Z,7.35
2022-09-12T00:57:36.760Z,6.32
2022-09-12T01:02:39.219Z,8.32
2022-09-12T01:07:41.922Z,8.90
2022-09-12T01:12:46.551Z,8.73
2022-09-12T01:18:02.120Z,7.65
2022-09-12T01:23:30.780Z,7.57
2022-09-12T01:28:59.984Z,7.18
2022-09-12T01:34:16.658Z,8.57
2022-09-12T01:39:29.874Z,8.60
2022-09-12T01:44:40.221Z,8.25
2022-09-12T01:49:52.460Z,7.90
2022-09-12T01:55:03.082Z,8.45
2022-09-12T02:00:11.758Z,9.25
2022-09-12T02:05:19.552Z,8.52
2022-09-12T02:10:27.185Z,9.30
2022-09-12T02:15:38.318Z,8.40
2022-09-12T02:20:48.424Z,9.25
2022-09-12T02:25:56.319Z,9.63
2022-09-12T02:31:05.536Z,9.82
2022-09-12T02:36:16.902Z,8.88
2022-09-12T02:41:20.901Z,8.63
2022-09-12T02:46:27.345Z,10.13
2022-09-12T02:51:31.664Z,9.60
2022-09-12T02:56:34.251Z,9.57
2022-09-12T03:01:50.513Z,9.25
2022-09-12T03:07:09.999Z,9.20
2022-09-12T03:12:25.644Z,9.10
2022-09-12T03:17:38.133Z,8.65
2022-09-12T03:22:51.198Z,8.70
2022-09-12T03:27:59.191Z,9.00
2022-09-12T03:33:03.324Z,8.80
2022-09-12T03:38:07.746Z,9.23
2022-09-12T03:43:10.856Z,8.30
2022-09-12T03:48:13.305Z,8.65
2022-09-12T03:53:17.675Z,8.30
2022-09-12T03:58:19.926Z,7.60
2022-09-12T04:03:22.354Z,8.38
2022-09-12T04:08:26.066Z,7.43
2022-09-12T04:13:28.498Z,8.07
2022-09-12T04:18:31.363Z,9.40
2022-09-12T04:23:35.706Z,8.18
2022-09-12T04:28:39.424Z,8.55
2022-09-12T04:33:42.131Z,8.43
2022-09-12T04:38:47.763Z,8.38
2022-09-12T04:43:54.162Z,8.77
2022-09-12T04:48:57.293Z,9.35
2022-09-12T04:54:03.783Z,9.80
2022-09-12T04:59:06.627Z,9.63
2022-09-12T05:04:11.241Z,13.20
2022-09-12T05:09:15.556Z,9.73
2022-09-12T05:14:18.154Z,8.98
2022-09-12T05:19:21.335Z,8.75
2022-09-12T05:24:25.161Z,9.63
2022-09-12T05:29:27.702Z,9.93
2022-09-12T05:34:30.243Z,9.88
2022-09-12T05:39:34.187Z,9.73
2022-09-12T05:44:36.830Z,11.10
2022-09-12T05:49:39.093Z,11.45
2022-09-12T05:54:42.762Z,15.40
2022-09-12T05:59:45.037Z,9.63
2022-09-12T06:04:47.541Z,9.48
2022-09-12T06:09:51.375Z,9.75
2022-09-12T06:14:53.657Z,9.63
2022-09-12T06:19:56.049Z,11.63
2022-09-12T06:24:59.742Z,10.70
2022-09-12T06:30:02.261Z,9.77
2022-09-12T06:35:05.395Z,10.32
2022-09-12T06:40:12.940Z,9.65
2022-09-12T06:45:15.567Z,10.90
2022-09-12T06:50:18.107Z,11.45
2022-09-12T06:55:25.837Z,10.70
2022-09-12T07:00:30.405Z,10.73
2022-09-12T07:05:34.772Z,9.55
2022-09-12T07:10:38.959Z,9.93
2022-09-12T07:15:41.670Z,13.27
2022-09-12T07:20:44.333Z,10.48
2022-09-12T07:25:55.062Z,11.23
2022-09-12T07:30:58.198Z,10.75
2022-09-12T07:36:02.412Z,10.20
2022-09-12T07:41:13.843Z,10.68
2022-09-12T07:46:16.793Z,11.98
2022-09-12T07:51:20.165Z,11.07
2022-09-12T07:56:29.893Z,11.85
2022-09-12T08:01:33.994Z,12.52
2022-09-12T08:06:36.654Z,13.38
2022-09-12T08:11:40.975Z,12.52
2022-09-12T08:16:43.871Z,12.65
2022-09-12T08:21:46.418Z,13.43
2022-09-12T08:26:50.457Z,14.00
2022-09-12T08:31:57.041Z,13.43
2022-09-12T08:36:59.813Z,14.57
2022-09-12T08:42:05.473Z,13.48
2022-09-12T08:47:22.615Z,13.65
2022-09-12T08:57:32.306Z,14.93
2022-09-12T09:03:16.760Z,13.70
2022-09-12T09:08:42.680Z,13.00
2022-09-12T09:14:04.490Z,12.90
2022-09-12T09:19:15.496Z,12.57
2022-09-12T09:24:22.234Z,10.60
2022-09-12T09:29:32.383Z,11.25
2022-09-12T09:34:35.420Z,10.25
2022-09-12T09:39:50.527Z,9.52
2022-09-12T09:44:59.484Z,9.82
2022-09-12T09:50:01.964Z,10.13
2022-09-12T09:55:12.871Z,9.90
2022-09-12T10:00:29.610Z,10.63
2022-09-12T10:10:37.137Z,10.63
2022-09-12T10:15:57.257Z,8.45
2022-09-12T10:21:00.942Z,8.25
2022-09-12T10:26:08.730Z,8.20
2022-09-12T10:31:17.874Z,7.32
2022-09-12T10:36:21.177Z,8.00
2022-09-12T10:41:24.883Z,8.00
2022-09-12T10:46:32.239Z,7.65
2022-09-12T10:51:35.790Z,7.47
2022-09-12T10:56:45.309Z,7.43
2022-09-12T11:01:52.929Z,7.55
2022-09-12T11:07:15.950Z,7.03
2022-09-12T11:12:27.196Z,7.60
2022-09-12T11:17:44.760Z,7.40
2022-09-12T11:23:06.185Z,6.82
2022-09-12T11:28:29.161Z,7.00
2022-09-12T11:33:43.309Z,5.50
2022-09-12T11:39:01.985Z,5.88
2022-09-12T11:44:14.823Z,4.60
2022-09-12T11:49:32.299Z,4.78
2022-09-12T11:54:43.345Z,4.03
2022-09-12T11:59:52.215Z,3.88
2022-09-12T12:05:18.161Z,4.38
2022-09-12T12:10:39.851Z,3.92
2022-09-12T12:15:48.793Z,3.25
2022-09-12T12:20:55.658Z,3.97
2022-09-12T12:26:00.396Z,3.72
2022-09-12T12:31:03.596Z,3.95
2022-09-12T12:36:09.893Z,4.35
2022-09-12T12:41:43.734Z,5.13
2022-09-12T12:47:15.893Z,4.85
2022-09-12T12:52:20.773Z,4.13
2022-09-12T12:57:57.005Z,4.28
2022-09-12T13:08:08.877Z,4.53
2022-09-12T13:13:24.045Z,4.90
2022-09-12T13:18:30.729Z,5.13
2022-09-12T13:23:35.375Z,5.18
2022-09-12T13:28:38.378Z,4.60
2022-09-12T13:33:45.928Z,4.25
2022-09-12T13:39:06.167Z,6.07
2022-09-12T13:44:12.492Z,5.35
2022-09-12T13:49:22.341Z,5.25
2022-09-12T13:54:27.169Z,4.22
2022-09-12T13:59:38.937Z,4.25
2022-09-12T14:04:41.825Z,3.92
2022-09-12T14:09:53.202Z,4.10
2022-09-12T14:14:56.207Z,4.70
2022-09-12T14:20:00.938Z,4.78
2022-09-12T14:25:07.864Z,4.60
2022-09-12T14:30:23.124Z,4.50
2022-09-12T14:35:43.477Z,4.28
2022-09-12T14:41:12.150Z,4.22
2022-09-12T14:46:22.316Z,3.90
2022-09-12T14:51:28.557Z,3.88
2022-09-12T14:56:54.075Z,4.32
2022-09-12T15:02:21.986Z,4.05
2022-09-12T15:07:37.170Z,3.33
2022-09-12T15:12:44.439Z,3.90
2022-09-12T15:17:47.110Z,3.65
2022-09-12T15:22:50.220Z,3.92
2022-09-12T15:27:54.807Z,3.78
2022-09-12T15:32:57.728Z,4.05
2022-09-12T15:38:00.275Z,3.80
2022-09-12T15:43:17.511Z,3.90
2022-09-12T15:48:20.473Z,3.92
2022-09-12T15:53:23.845Z,4.28
2022-09-12T15:58:28.350Z,3.75
2022-09-12T16:03:33.906Z,3.80
2022-09-12T16:08:57.140Z,3.47
2022-09-12T16:14:01.244Z,3.55
2022-09-12T16:19:18.410Z,3.80
2022-09-12T16:24:21.620Z,3.90
2022-09-12T16:29:25.818Z,3.90
2022-09-12T16:34:28.801Z,3.85
2022-09-12T16:39:39.964Z,3.38
2022-09-12T16:44:44.063Z,3.80
2022-09-12T16:49:46.769Z,3.80
2022-09-12T16:54:49.334Z,4.00
2022-09-12T16:59:54.247Z,3.53
2022-09-12T17:05:10.194Z,4.05
2022-09-12T17:10:12.917Z,3.97
2022-09-12T17:15:17.341Z,3.92
2022-09-12T17:20:20.688Z,3.72
2022-09-12T17:25:23.341Z,4.22
2022-09-12T17:30:45.217Z,3.63
2022-09-12T17:35:47.798Z,3.88
2022-09-12T17:40:59.393Z,3.30
2022-09-12T17:46:10.933Z,3.70
2022-09-12T17:51:18.223Z,3.45
2022-09-12T17:56:20.775Z,3.75
2022-09-12T18:01:26.120Z,3.42
2022-09-12T18:06:52.668Z,3.88
2022-09-12T18:11:55.883Z,3.92
2022-09-12T18:17:05.513Z,4.05
2022-09-12T18:22:08.377Z,4.32
2022-09-12T18:27:16.884Z,3.50
2022-09-12T18:32:21.445Z,4.65
2022-09-12T18:37:30.478Z,4.78
2022-09-12T18:43:14.746Z,5.07
2022-09-12T18:48:25.696Z,4.53
2022-09-12T18:53:30.516Z,4.65
2022-09-12T18:58:33.005Z,4.38
2022-09-12T19:03:37.570Z,4.93
2022-09-12T19:08:40.367Z,6.40
2022-09-12T19:13:44.771Z,9.10
2022-09-12T19:19:00.165Z,7.07
2022-09-12T19:24:34.297Z,4.80
2022-09-12T19:29:36.882Z,4.25
2022-09-12T19:34:51.337Z,4.88
2022-09-12T19:40:12.077Z,4.40
2022-09-12T19:45:46.340Z,4.57
2022-09-12T19:50:53.228Z,4.35
2022-09-12T19:56:31.630Z,4.63
2022-09-12T20:01:44.708Z,4.32
2022-09-12T20:06:48.914Z,4.78
2022-09-12T20:11:56.567Z,4.63
2022-09-12T20:17:03.959Z,4.72
2022-09-12T20:22:08.077Z,4.72
2022-09-12T20:27:10.529Z,4.97
2022-09-12T20:32:13.131Z,4.97
2022-09-12T20:37:17.234Z,4.85
2022-09-12T20:42:19.559Z,5.05
2022-09-12T20:47:22.007Z,4.80
2022-09-12T20:52:25.754Z,5.43
2022-09-12T20:57:28.106Z,5.13
2022-09-12T21:02:30.528Z,4.82
2022-09-12T21:07:34.306Z,4.78
2022-09-12T21:12:36.611Z,4.38
2022-09-12T21:17:39.061Z,5.10
2022-09-12T21:22:42.994Z,5.25
2022-09-12T21:27:45.408Z,4.80
2022-09-12T21:32:47.653Z,4.43
2022-09-12T21:37:53.612Z,4.65
2022-09-12T21:42:56.323Z,4.70
2022-09-12T21:47:59.129Z,5.10
2022-09-12T21:53:03.055Z,4.30
2022-09-12T21:58:05.391Z,4.50
2022-09-12T22:03:07.999Z,4.47
2022-09-12T22:08:12.167Z,4.78
2022-09-12T22:13:14.514Z,4.07
2022-09-12T22:18:16.794Z,5.03
2022-09-12T22:23:24.635Z,5.03
2022-09-12T22:28:27.469Z,5.38
2022-09-12T22:33:29.844Z,5.68
2022-09-12T22:38:33.837Z,6.25
2022-09-12T22:43:37.081Z,5.82
2022-09-12T22:48:39.643Z,6.22
2022-09-12T22:53:43.658Z,6.28
2022-09-12T22:58:45.941Z,5.97
2022-09-12T23:03:48.304Z,7.15
2022-09-12T23:08:52.363Z,6.47
2022-09-12T23:13:54.701Z,6.50
2022-09-12T23:18:56.904Z,6.70
2022-09-12T23:24:00.644Z,6.22
2022-09-12T23:29:04.044Z,5.97
2022-09-12T23:34:06.594Z,6.10
2022-09-12T23:39:11.053Z,5.75
2022-09-12T23:44:13.382Z,5.70
2022-09-12T23:49:15.629Z,6.20
2022-09-12T23:54:19.431Z,5.88
2022-09-12T23:59:22.030Z,6.63
